Time;durP1;ratioP1;P1;durP2;ratioP2;P2;SDS_P1;SDS_P2;PMS_P1;PMS_P2;Temp;Humidity;BMP_temperature;BMP_pressure;BME280_temperature;BME280_humidity;BME280_pressure;Samples;Min_cycle;Max_cycle;Signal;HPM_P1;HPM_P2
2023/05/05 06:32:31;;;;;;;6.63;3.20;;;17.70;95.40;;;;;;6411779;23;20060;-76
2023/05/05 06:35:33;;;;;;;7.35;3.50;;;17.80;95.30;;;;;;6120486;29;20052;-76
2023/05/05 06:38:34;;;;;;;5.30;3.30;;;17.80;94.90;;;;;;6132873;29;20142;-75
2023/05/05 06:41:36;;;;;;;6.43;3.40;;;17.80;95.30;;;;;;6131973;29;20047;-76
2023/05/05 06:44:38;;;;;;;5.90;3.47;;;17.90;95.20;;;;;;6131447;29;20054;-75
2023/05/05 06:47:43;;;;;;;8.43;3.85;;;18.00;95.00;;;;;;6131539;29;20053;-76
2023/05/05 06:50:45;;;;;;;6.40;3.92;;;18.00;94.80;;;;;;6131346;29;20563;-74
2023/05/05 06:53:47;;;;;;;8.15;3.90;;;18.10;94.80;;;;;;6131562;29;20051;-75
2023/05/05 06:56:48;;;;;;;8.80;3.92;;;18.20;94.90;;;;;;6131587;29;20069;-77
2023/05/05 06:59:50;;;;;;;6.55;3.95;;;18.30;94.80;;;;;;6131103;29;20048;-76
2023/05/05 07:02:54;;;;;;;8.48;4.10;;;18.30;95.10;;;;;;6131303;29;20139;-76
2023/05/05 07:05:56;;;;;;;7.97;4.20;;;18.40;95.10;;;;;;6131273;29;20044;-75
2023/05/05 07:08:58;;;;;;;7.57;4.22;;;18.50;95.30;;;;;;6125907;29;20508;-76
2023/05/05 07:12:00;;;;;;;6.72;3.63;;;18.50;94.90;;;;;;6108520;29;20048;-75
2023/05/05 07:15:03;;;;;;;8.40;3.92;;;18.60;94.90;;;;;;6107517;29;20056;-75
2023/05/05 07:18:06;;;;;;;8.38;4.10;;;18.60;94.90;;;;;;6107398;29;20486;-76
2023/05/05 07:21:08;;;;;;;7.03;4.10;;;18.70;95.00;;;;;;6111571;29;20509;-75
2023/05/05 07:24:09;;;;;;;6.43;4.07;;;18.80;95.10;;;;;;6111216;29;20504;-75
2023/05/05 07:27:11;;;;;;;5.95;3.72;;;18.80;95.10;;;;;;6112360;29;20052;-75
2023/05/05 07:30:14;;;;;;;6.55;3.70;;;18.90;95.20;;;;;;6115848;29;20044;-76
2023/05/05 07:33:17;;;;;;;8.00;3.60;;;19.00;95.20;;;;;;6116396;29;20047;-74
2023/05/05 07:36:19;;;;;;;6.07;3.40;;;19.10;95.30;;;;;;6132535;29;20448;-75
2023/05/05 07:39:21;;;;;;;5.63;2.88;;;19.30;95.20;;;;;;6113935;29;20048;-77
2023/05/05 07:42:23;;;;;;;7.43;3.00;;;19.40;95.20;;;;;;6116314;29;20054;-75
2023/05/05 07:45:25;;;;;;;4.47;2.53;;;19.40;94.90;;;;;;6130527;29;20051;-76
2023/05/05 07:48:29;;;;;;;5.68;2.65;;;19.50;94.40;;;;;;6129306;29;20055;-76
2023/05/05 07:51:31;;;;;;;;;;;19.50;94.80;;;;;;6132118;29;20052;-78
2023/05/05 07:54:33;;;;;;;5.13;2.50;;;19.50;94.70;;;;;;6131451;29;19922;-77
2023/05/05 07:57:35;;;;;;;5.22;2.67;;;19.60;94.80;;;;;;6132319;29;20056;-74
2023/05/05 08:00:37;;;;;;;4.70;2.40;;;19.60;94.80;;;;;;6136935;29;20056;-76
2023/05/05 08:03:40;;;;;;;5.93;2.55;;;19.50;94.60;;;;;;6138424;29;20048;-76
2023/05/05 08:06:42;;;;;;;5.05;2.40;;;19.40;94.50;;;;;;6136496;29;20056;-77
2023/05/05 08:09:44;;;;;;;5.68;2.70;;;19.30;94.50;;;;;;6137472;29;20051;-75
2023/05/05 08:12:47;;;;;;;4.78;2.50;;;19.30;94.70;;;;;;6118021;29;20048;-75
2023/05/05 08:15:49;;;;;;;5.22;2.40;;;19.40;94.40;;;;;;6106316;29;20067;-75
2023/05/05 08:18:52;;;;;;;5.35;2.25;;;19.30;94.40;;;;;;6106216;29;20187;-76
2023/05/05 08:21:54;;;;;;;4.03;2.50;;;19.30;94.50;;;;;;6107425;29;20083;-76
2023/05/05 08:24:56;;;;;;;5.18;2.63;;;19.20;94.70;;;;;;6107469;29;20235;-75
2023/05/05 08:27:58;;;;;;;7.38;2.92;;;19.10;95.20;;;;;;6106293;29;20044;-75
2023/05/05 08:31:00;;;;;;;5.63;2.72;;;19.00;95.30;;;;;;6105793;29;20498;-78
2023/05/05 08:34:04;;;;;;;6.43;2.50;;;19.00;95.30;;;;;;6106840;29;20669;-75
2023/05/05 08:37:06;;;;;;;4.57;2.42;;;19.00;95.20;;;;;;6108302;29;20051;-77
2023/05/05 08:40:12;;;;;;;4.70;2.38;;;19.00;95.10;;;;;;6105397;29;20052;-74
2023/05/05 08:43:14;;;;;;;6.43;2.60;;;19.00;95.30;;;;;;6105625;29;20509;-75
2023/05/05 08:46:17;;;;;;;6.40;2.83;;;19.10;95.00;;;;;;6105327;29;20052;-76
2023/05/05 08:49:21;;;;;;;4.43;2.40;;;19.10;95.20;;;;;;6109167;29;20417;-77
2023/05/05 08:52:26;;;;;;;6.00;2.70;;;19.20;95.10;;;;;;6128939;29;20048;-76
2023/05/05 08:55:34;;;;;;;6.85;2.75;;;19.10;95.10;;;;;;6128673;29;20058;-75
2023/05/05 08:58:37;;;;;;;5.22;2.80;;;19.10;96.00;;;;;;6128905;29;20055;-75
2023/05/05 09:01:41;;;;;;;5.53;2.70;;;18.90;97.60;;;;;;6128570;29;20409;-76
2023/05/05 09:04:45;;;;;;;5.38;2.80;;;18.80;98.60;;;;;;6126940;29;20052;-77
2023/05/05 09:07:47;;;;;;;5.00;2.60;;;18.90;99.40;;;;;;6128703;29;20489;-76
2023/05/05 09:10:51;;;;;;;7.13;3.17;;;19.00;99.50;;;;;;6128512;29;20130;-75
2023/05/05 09:13:54;;;;;;;5.15;3.05;;;19.20;99.90;;;;;;6115336;29;20047;-77
2023/05/05 09:16:56;;;;;;;8.88;2.97;;;19.30;99.90;;;;;;6104617;29;20051;-75
2023/05/05 09:20:05;;;;;;;7.10;2.70;;;19.40;99.90;;;;;;6104700;29;20077;-75
2023/05/05 09:23:09;;;;;;;5.95;3.00;;;19.60;99.90;;;;;;6104526;29;20055;-76
2023/05/05 09:26:11;;;;;;;;;;;19.60;99.90;;;;;;6108806;29;20052;-77
2023/05/05 09:29:18;;;;;;;4.57;2.58;;;19.70;99.90;;;;;;6147620;29;20360;-75
2023/05/05 09:32:20;;;;;;;6.13;2.47;;;19.80;99.90;;;;;;6151527;28;20051;-77
2023/05/05 09:35:24;;;;;;;4.75;2.80;;;19.80;99.90;;;;;;6152031;28;20051;-76
2023/05/05 09:38:25;;;;;;;5.15;2.70;;;20.00;99.90;;;;;;6151749;28;20382;-75
2023/05/05 09:41:37;;;;;;;6.00;2.45;;;20.00;99.90;;;;;;6149604;28;20407;-75
2023/05/05 09:44:40;;;;;;;5.03;2.60;;;20.10;99.90;;;;;;6104760;29;20569;-78
2023/05/05 09:47:41;;;;;;;5.13;2.55;;;20.20;99.90;;;;;;6105182;29;20052;-77
2023/05/05 09:50:45;;;;;;;5.43;2.20;;;20.20;99.90;;;;;;6117011;29;20048;-77
2023/05/05 09:53:47;;;;;;;4.75;2.20;;;20.30;99.90;;;;;;6113999;29;20471;-77
2023/05/05 09:56:49;;;;;;;5.53;2.42;;;20.30;99.90;;;;;;6107032;29;20050;-77
2023/05/05 09:59:56;;;;;;;5.90;2.40;;;20.30;99.90;;;;;;6111445;29;20052;-78
2023/05/05 10:03:02;;;;;;;8.60;2.17;;;20.30;99.90;;;;;;6106243;29;20048;-76
2023/05/05 10:06:06;;;;;;;5.00;1.83;;;20.50;99.50;;;;;;6106177;29;20052;-77
2023/05/05 10:09:08;;;;;;;5.15;1.70;;;20.50;99.30;;;;;;6106384;29;20498;-77
2023/05/05 10:12:10;;;;;;;3.17;1.58;;;20.60;96.90;;;;;;6106569;29;20106;-74
2023/05/05 10:15:13;;;;;;;4.40;1.38;;;20.70;97.80;;;;;;6103918;29;20048;-76
2023/05/05 10:18:19;;;;;;;4.22;1.73;;;20.90;96.20;;;;;;6103874;29;20059;-77
2023/05/05 10:21:24;;;;;;;2.65;1.10;;;21.10;96.10;;;;;;6105852;29;20051;-75
2023/05/05 10:24:38;;;;;;;2.95;1.30;;;21.10;94.40;;;;;;6104473;29;20131;-76
2023/05/05 10:27:45;;;;;;;3.30;1.58;;;21.20;94.70;;;;;;6104131;29;20052;-77
2023/05/05 10:30:51;;;;;;;3.88;1.63;;;21.40;94.50;;;;;;6118138;29;20400;-77
2023/05/05 10:33:59;;;;;;;3.10;1.40;;;21.60;94.30;;;;;;6127728;29;20050;-76
2023/05/05 10:37:03;;;;;;;3.22;1.30;;;21.70;94.40;;;;;;6122122;29;20043;-77
2023/05/05 10:40:08;;;;;;;3.33;1.27;;;21.80;94.70;;;;;;6136088;29;20059;-77
2023/05/05 10:43:10;;;;;;;5.07;1.40;;;21.90;93.10;;;;;;6135279;29;20047;-78
2023/05/05 10:46:13;;;;;;;3.83;1.40;;;21.90;93.20;;;;;;6132436;29;20047;-77
2023/05/05 10:49:24;;;;;;;3.72;1.33;;;21.80;93.60;;;;;;6122818;29;20052;-77
2023/05/05 10:52:39;;;;;;;3.60;1.30;;;21.90;92.90;;;;;;6116057;29;20044;-78
2023/05/05 10:55:52;;;;;;;3.92;1.40;;;22.10;92.40;;;;;;6103497;29;20044;-79
2023/05/05 10:58:54;;;;;;;4.78;1.45;;;22.10;92.70;;;;;;6103670;29;20052;-78
2023/05/05 11:01:56;;;;;;;3.00;1.30;;;22.30;92.20;;;;;;6103136;29;20055;-77
2023/05/05 11:05:16;;;;;;;3.00;1.30;;;22.40;91.70;;;;;;6103369;29;20055;-77
2023/05/05 11:08:29;;;;;;;3.03;1.33;;;22.20;91.50;;;;;;6103247;29;20048;-79
2023/05/05 11:12:01;;;;;;;;;;;22.40;91.30;;;;;;6103742;29;20493;-79
2023/05/05 11:15:40;;;;;;;3.58;1.27;;;22.50;91.90;;;;;;6103168;29;19934;-78
2023/05/05 11:18:43;;;;;;;3.00;1.40;;;22.70;91.10;;;;;;6103909;29;20063;-79
2023/05/05 11:22:00;;;;;;;3.40;1.30;;;22.90;90.50;;;;;;6104521;29;20067;-79
2023/05/05 11:25:46;;;;;;;3.17;1.30;;;22.80;89.00;;;;;;6108837;29;20059;-76
2023/05/05 11:28:58;;;;;;;4.28;1.42;;;22.70;90.20;;;;;;6107344;29;20044;-79
2023/05/05 11:32:14;;;;;;;3.33;1.40;;;22.70;88.30;;;;;;6107305;29;20414;-79
2023/05/05 11:35:16;;;;;;;5.13;1.50;;;22.60;88.90;;;;;;6107161;29;20525;-77
2023/05/05 11:38:20;;;;;;;2.97;1.40;;;22.50;87.80;;;;;;6107357;29;20052;-77
2023/05/05 11:41:40;;;;;;;3.70;1.70;;;22.60;88.30;;;;;;6107157;29;20051;-77
2023/05/05 11:44:42;;;;;;;4.13;1.60;;;22.60;88.70;;;;;;6109605;29;20512;-78
2023/05/05 11:47:44;;;;;;;3.38;1.40;;;22.50;89.40;;;;;;6107499;29;20052;-77
2023/05/05 11:50:46;;;;;;;5.18;1.50;;;22.90;88.30;;;;;;6106772;29;20504;-79
2023/05/05 11:53:49;;;;;;;5.13;1.52;;;23.00;88.70;;;;;;6106949;29;20044;-77
2023/05/05 11:56:54;;;;;;;3.30;1.38;;;22.80;89.60;;;;;;6106859;29;20161;-77
2023/05/05 12:00:00;;;;;;;3.58;1.40;;;22.70;90.50;;;;;;6106610;29;20075;-78
2023/05/05 12:03:02;;;;;;;3.05;1.20;;;23.00;89.00;;;;;;6107273;29;20505;-80
2023/05/05 12:06:04;;;;;;;3.92;1.70;;;23.10;87.10;;;;;;6107142;29;20048;-79
2023/05/05 12:09:07;;;;;;;3.67;1.42;;;23.40;87.00;;;;;;6107243;29;20059;-79
2023/05/05 12:12:10;;;;;;;3.15;1.52;;;23.60;85.20;;;;;;6106880;29;20055;-79
2023/05/05 12:15:12;;;;;;;;;;;23.40;83.90;;;;;;6107140;29;20048;-79
2023/05/05 12:18:18;;;;;;;4.67;1.70;;;23.50;85.70;;;;;;6106747;29;19930;-79
2023/05/05 12:21:21;;;;;;;3.97;1.50;;;23.50;84.30;;;;;;6119163;29;20047;-75
2023/05/05 12:24:23;;;;;;;4.47;1.38;;;23.20;85.20;;;;;;6127731;29;20066;-80
2023/05/05 12:27:28;;;;;;;4.47;1.73;;;23.30;81.40;;;;;;6118600;29;20067;-80
2023/05/05 12:30:30;;;;;;;3.25;1.35;;;23.20;83.60;;;;;;6124369;29;20054;-79
2023/05/05 12:33:39;;;;;;;4.07;1.70;;;23.40;80.50;;;;;;6117492;29;20048;-77
2023/05/05 12:36:41;;;;;;;4.32;1.33;;;23.70;80.50;;;;;;6128404;29;20127;-75
2023/05/05 12:39:43;;;;;;;4.13;1.50;;;23.80;80.30;;;;;;6128574;29;20099;-76
2023/05/05 12:42:46;;;;;;;3.88;1.45;;;23.80;80.90;;;;;;6128747;29;20048;-74
2023/05/05 12:45:48;;;;;;;;;;;23.80;82.50;;;;;;6130041;29;20047;-77
2023/05/05 12:49:03;;;;;;;4.85;1.45;;;23.60;81.00;;;;;;6106314;29;19923;-74
2023/05/05 12:52:06;;;;;;;4.05;1.40;;;23.90;80.10;;;;;;6119738;29;20052;-74
2023/05/05 12:55:10;;;;;;;;;;;23.80;79.70;;;;;;6129997;29;20063;-73
2023/05/05 12:58:13;;;;;;;6.40;2.00;;;23.30;81.00;;;;;;6129354;29;19927;-73
2023/05/05 13:01:14;;;;;;;;;;;23.60;80.40;;;;;;6126751;29;20482;-72
2023/05/05 13:04:18;;;;;;;5.77;3.07;;;23.50;79.30;;;;;;6105632;29;20022;-76
2023/05/05 13:07:22;;;;;;;4.70;1.80;;;23.70;83.70;;;;;;6105383;29;20312;-74
2023/05/05 13:10:25;;;;;;;5.68;2.33;;;24.00;78.70;;;;;;6116602;29;20047;-77
2023/05/05 13:13:32;;;;;;;5.20;2.03;;;24.00;76.50;;;;;;6124983;29;20056;-77
2023/05/05 13:16:34;;;;;;;4.47;1.70;;;23.80;79.30;;;;;;6107789;29;20063;-79
2023/05/05 13:19:40;;;;;;;3.83;1.60;;;23.70;83.60;;;;;;6123879;29;20519;-76
2023/05/05 13:22:42;;;;;;;6.85;1.80;;;23.80;80.60;;;;;;6128368;29;20051;-77
2023/05/05 13:25:44;;;;;;;3.97;1.90;;;23.80;83.80;;;;;;6125812;29;20059;-78
2023/05/05 13:28:47;;;;;;;3.92;1.70;;;23.80;81.80;;;;;;6125929;29;20403;-75
2023/05/05 13:31:49;;;;;;;;;;;23.80;79.50;;;;;;6128217;29;20052;-76
2023/05/05 13:34:51;;;;;;;4.13;1.73;;;23.90;81.90;;;;;;6130821;29;19938;-78
2023/05/05 13:37:53;;;;;;;3.58;1.65;;;24.00;79.30;;;;;;6128786;29;20052;-79
2023/05/05 13:40:55;;;;;;;4.13;1.52;;;24.10;80.60;;;;;;6124095;29;20050;-77
2023/05/05 13:43:58;;;;;;;4.10;1.50;;;24.00;80.60;;;;;;6103409;29;20048;-77
2023/05/05 13:47:00;;;;;;;4.32;2.00;;;24.00;81.60;;;;;;6121948;29;20062;-76
2023/05/05 13:50:02;;;;;;;4.28;1.80;;;24.30;81.90;;;;;;6121687;29;20409;-75
2023/05/05 13:53:04;;;;;;;4.70;1.95;;;24.30;80.50;;;;;;6125331;29;20061;-75
2023/05/05 13:56:06;;;;;;;3.80;1.42;;;24.30;79.00;;;;;;6125101;29;20054;-78
2023/05/05 13:59:09;;;;;;;3.47;1.37;;;24.70;77.80;;;;;;6121677;29;20051;-77
2023/05/05 14:02:11;;;;;;;;;;;25.00;75.60;;;;;;6124311;29;20055;-76
2023/05/05 14:05:13;;;;;;;3.33;1.20;;;24.60;76.10;;;;;;6122683;29;19926;-77
2023/05/05 14:08:15;;;;;;;4.37;1.60;;;25.00;79.10;;;;;;6124408;29;20044;-76
2023/05/05 14:11:19;;;;;;;4.68;1.67;;;24.90;76.50;;;;;;6121190;29;20058;-76
2023/05/05 14:14:22;;;;;;;3.22;1.30;;;25.20;76.10;;;;;;6122818;29;20035;-74
2023/05/05 14:17:24;;;;;;;3.00;1.30;;;25.70;75.10;;;;;;6125043;29;20055;-75
2023/05/05 14:20:26;;;;;;;3.50;1.67;;;25.90;76.50;;;;;;6123311;29;20056;-76
2023/05/05 14:23:28;;;;;;;5.10;1.65;;;25.90;74.50;;;;;;6123725;29;20047;-77
2023/05/05 14:26:30;;;;;;;5.15;1.80;;;25.90;72.60;;;;;;6124407;29;20044;-77
2023/05/05 14:29:33;;;;;;;5.68;1.58;;;26.00;72.00;;;;;;6124040;29;20054;-77
2023/05/05 14:32:35;;;;;;;2.97;1.40;;;26.20;70.00;;;;;;6124520;29;20056;-77
2023/05/05 14:35:37;;;;;;;3.95;1.58;;;26.50;68.80;;;;;;6107432;29;20418;-77
2023/05/05 14:38:39;;;;;;;3.45;1.30;;;26.20;69.60;;;;;;6105727;29;20776;-75
2023/05/05 14:41:41;;;;;;;4.63;1.58;;;25.90;72.00;;;;;;6120464;29;20048;-76
2023/05/05 14:44:44;;;;;;;5.45;1.48;;;25.90;70.50;;;;;;6124546;29;20079;-77
2023/05/05 14:47:46;;;;;;;4.30;1.20;;;25.60;71.00;;;;;;6123455;29;20753;-76
2023/05/05 14:50:48;;;;;;;3.03;1.38;;;25.00;71.90;;;;;;6123948;29;20059;-76
2023/05/05 14:53:50;;;;;;;4.82;1.40;;;24.80;73.50;;;;;;6123640;29;20417;-78
2023/05/05 14:56:52;;;;;;;3.20;1.58;;;24.10;72.70;;;;;;6104467;29;20172;-76
2023/05/05 14:59:55;;;;;;;3.03;1.38;;;24.10;74.10;;;;;;6126126;29;20055;-75
2023/05/05 15:02:57;;;;;;;;;;;23.90;74.30;;;;;;6137036;29;20043;-75
2023/05/05 15:05:59;;;;;;;4.10;1.60;;;23.80;75.40;;;;;;6137742;29;19927;-75
2023/05/05 15:09:01;;;;;;;3.08;1.60;;;23.70;75.00;;;;;;6129198;29;20311;-77
2023/05/05 15:12:03;;;;;;;4.57;1.75;;;23.50;75.20;;;;;;6128686;29;20068;-76
2023/05/05 15:15:08;;;;;;;3.45;1.40;;;23.40;77.20;;;;;;6126290;29;20055;-76
2023/05/05 15:18:10;;;;;;;4.88;1.50;;;23.30;77.50;;;;;;6126820;29;20115;-76
2023/05/05 15:21:12;;;;;;;5.20;1.73;;;23.00;76.40;;;;;;6127317;29;20062;-75
2023/05/05 15:24:14;;;;;;;3.10;1.63;;;23.00;76.70;;;;;;6122185;29;20052;-76
2023/05/05 15:27:17;;;;;;;4.80;1.60;;;22.90;78.40;;;;;;6114194;29;20056;-77
2023/05/05 15:30:20;;;;;;;3.25;1.40;;;22.70;79.00;;;;;;6127946;29;20102;-77
2023/05/05 15:33:22;;;;;;;;;;;22.60;79.60;;;;;;6126183;29;20055;-76
2023/05/05 15:36:24;;;;;;;4.60;1.70;;;22.70;79.50;;;;;;6126372;29;19942;-77
2023/05/05 15:39:26;;;;;;;4.28;1.60;;;22.50;79.20;;;;;;6126774;29;20058;-76
2023/05/05 15:42:28;;;;;;;4.53;1.50;;;22.50;79.90;;;;;;6127815;29;20090;-76
2023/05/05 15:45:31;;;;;;;6.72;3.83;;;22.40;79.80;;;;;;6127364;29;20048;-75
2023/05/05 15:48:40;;;;;;;;;;;22.10;81.60;;;;;;6123010;29;20493;-75
2023/05/05 15:51:42;;;;;;;4.63;2.20;;;22.20;82.80;;;;;;6123132;29;19922;-76
2023/05/05 15:54:44;;;;;;;3.58;1.75;;;22.40;82.20;;;;;;6127271;29;20126;-75
2023/05/05 15:57:47;;;;;;;4.95;1.88;;;22.50;83.00;;;;;;6127947;29;20059;-75
2023/05/05 16:00:50;;;;;;;5.13;1.83;;;22.20;84.90;;;;;;6126604;29;20051;-75
2023/05/05 16:03:52;;;;;;;4.30;1.80;;;22.30;87.00;;;;;;6123051;29;20051;-75
2023/05/05 16:06:55;;;;;;;3.35;1.55;;;22.30;88.40;;;;;;6125221;29;20044;-75
2023/05/05 16:09:56;;;;;;;5.07;2.10;;;22.40;90.30;;;;;;6122842;29;20055;-74
2023/05/05 16:12:59;;;;;;;4.43;1.83;;;22.30;91.20;;;;;;6126016;29;20499;-75
2023/05/05 16:16:03;;;;;;;5.32;2.85;;;22.30;91.70;;;;;;6116924;29;20043;-76
2023/05/05 16:19:04;;;;;;;;;;;22.30;92.50;;;;;;6126752;29;20051;-74
2023/05/05 16:22:07;;;;;;;4.90;2.63;;;22.00;93.20;;;;;;6127268;29;19931;-76
2023/05/05 16:25:09;;;;;;;4.82;2.17;;;21.90;94.60;;;;;;6113037;29;20103;-76
2023/05/05 16:28:12;;;;;;;7.10;2.50;;;21.60;96.10;;;;;;6119823;29;20489;-77
2023/05/05 16:31:15;;;;;;;10.30;2.83;;;21.30;97.60;;;;;;6119481;29;20079;-75
2023/05/05 16:34:17;;;;;;;5.65;2.70;;;21.00;98.70;;;;;;6125314;29;20047;-75
2023/05/05 16:37:19;;;;;;;8.32;3.15;;;20.70;99.90;;;;;;6125347;29;20059;-75
2023/05/05 16:40:21;;;;;;;9.25;4.03;;;19.90;99.90;;;;;;6116415;29;20409;-74
2023/05/05 16:43:23;;;;;;;9.57;3.20;;;19.20;99.90;;;;;;6124704;29;20060;-75
2023/05/05 16:46:26;;;;;;;5.93;2.45;;;19.10;99.90;;;;;;6125540;29;20735;-75
2023/05/05 16:49:28;;;;;;;5.65;2.13;;;18.50;99.90;;;;;;6102583;29;20062;-74
2023/05/05 16:52:30;;;;;;;6.13;2.17;;;18.60;99.90;;;;;;6126207;29;20056;-76
2023/05/05 16:55:33;;;;;;;5.30;1.90;;;18.80;99.90;;;;;;6140911;29;20052;-77
2023/05/05 16:58:35;;;;;;;6.22;2.13;;;18.80;99.90;;;;;;6131600;29;20051;-74
2023/05/05 17:01:38;;;;;;;6.95;2.30;;;18.40;99.90;;;;;;6124793;29;20051;-77
2023/05/05 17:04:40;;;;;;;7.60;2.63;;;18.40;99.90;;;;;;6125624;29;20060;-76
2023/05/05 17:07:42;;;;;;;8.05;2.35;;;18.50;99.90;;;;;;6118593;29;20048;-74
2023/05/05 17:10:45;;;;;;;7.60;2.50;;;18.60;99.90;;;;;;6117517;29;20048;-76
2023/05/05 17:13:47;;;;;;;9.05;3.17;;;18.70;99.90;;;;;;6117348;29;20067;-74
2023/05/05 17:16:50;;;;;;;5.72;2.22;;;18.70;99.90;;;;;;6113750;29;20055;-76
2023/05/05 17:19:52;;;;;;;4.50;1.92;;;18.60;99.90;;;;;;6125013;29;20513;-77
2023/05/05 17:22:54;;;;;;;8.02;2.42;;;18.50;99.90;;;;;;6122440;29;20051;-76
2023/05/05 17:25:57;;;;;;;5.85;2.10;;;18.50;99.90;;;;;;6120195;29;20048;-74
2023/05/05 17:28:59;;;;;;;5.75;2.25;;;18.60;99.90;;;;;;6122780;29;20052;-75
2023/05/05 17:32:02;;;;;;;5.75;2.05;;;18.30;99.90;;;;;;6126431;29;20060;-75
2023/05/05 17:35:05;;;;;;;5.00;1.90;;;18.30;99.90;;;;;;6125155;29;20047;-74
2023/05/05 17:38:07;;;;;;;5.63;2.10;;;18.40;99.90;;;;;;6121037;29;20379;-73
2023/05/05 17:41:09;;;;;;;4.68;1.40;;;18.50;99.90;;;;;;6122491;29;20055;-74
2023/05/05 17:44:11;;;;;;;5.65;1.70;;;18.60;99.90;;;;;;6106959;29;20048;-75
2023/05/05 17:47:14;;;;;;;6.43;1.60;;;18.60;99.90;;;;;;6123613;29;20051;-74
2023/05/05 17:50:16;;;;;;;3.70;1.45;;;18.60;99.90;;;;;;6123534;29;20488;-79
2023/05/05 17:53:19;;;;;;;5.47;1.75;;;18.70;99.90;;;;;;6122163;29;20135;-77
2023/05/05 17:56:21;;;;;;;3.80;1.43;;;18.70;99.90;;;;;;6118113;29;20052;-77
2023/05/05 17:59:23;;;;;;;4.05;1.65;;;18.70;99.90;;;;;;6114345;29;20063;-78
2023/05/05 18:02:26;;;;;;;3.22;1.27;;;18.70;99.90;;;;;;6121378;29;20052;-78
2023/05/05 18:05:30;;;;;;;4.82;1.52;;;18.70;99.90;;;;;;6122304;29;20058;-77
2023/05/05 18:08:31;;;;;;;;;;;18.70;99.90;;;;;;6122486;29;20059;-75
2023/05/05 18:11:33;;;;;;;3.70;1.40;;;18.60;99.90;;;;;;6122149;29;19926;-76
2023/05/05 18:14:35;;;;;;;6.55;1.40;;;18.60;99.90;;;;;;6109848;28;20048;-72
2023/05/05 18:17:39;;;;;;;3.88;1.63;;;18.60;99.90;;;;;;6111211;29;20078;-70
2023/05/05 18:20:42;;;;;;;;;;;18.50;99.90;;;;;;6122500;29;20082;-70
2023/05/05 18:23:44;;;;;;;3.53;1.30;;;18.40;99.90;;;;;;6137284;29;19978;-71
2023/05/05 18:26:48;;;;;;;4.70;1.52;;;18.40;99.90;;;;;;6129919;28;20243;-71
2023/05/05 18:29:50;;;;;;;3.70;1.58;;;18.20;99.90;;;;;;6123690;29;20379;-69
2023/05/05 18:32:54;;;;;;;4.72;1.83;;;18.20;99.90;;;;;;6123715;29;20063;-78
2023/05/05 18:35:56;;;;;;;4.47;1.63;;;18.10;99.90;;;;;;6110619;29;20052;-79
2023/05/05 18:38:58;;;;;;;5.22;1.98;;;18.10;99.90;;;;;;6110947;29;20087;-79
2023/05/05 18:42:02;;;;;;;5.63;2.00;;;18.10;99.90;;;;;;6131059;28;20048;-76
2023/05/05 18:45:04;;;;;;;;;;;18.10;99.90;;;;;;6126421;29;20190;-76
2023/05/05 18:48:07;;;;;;;6.28;2.40;;;17.90;99.90;;;;;;6126251;29;19953;-79
2023/05/05 18:51:09;;;;;;;5.78;2.65;;;17.90;99.90;;;;;;6121746;29;20052;-78
2023/05/05 18:54:11;;;;;;;5.65;2.30;;;17.40;99.90;;;;;;6124978;29;20121;-78
2023/05/05 18:57:13;;;;;;;5.32;2.05;;;17.50;99.90;;;;;;6126480;29;20055;-78
2023/05/05 19:00:18;;;;;;;5.78;2.25;;;17.70;99.90;;;;;;6120636;29;20573;-76
2023/05/05 19:03:24;;;;;;;6.03;2.38;;;17.90;99.90;;;;;;6133612;29;20051;-76
2023/05/05 19:06:26;;;;;;;7.78;2.30;;;17.90;99.90;;;;;;6146391;28;20051;-77
2023/05/05 19:09:28;;;;;;;5.28;2.60;;;17.90;99.90;;;;;;6124294;29;20052;-77
2023/05/05 19:12:30;;;;;;;6.13;2.58;;;17.90;99.90;;;;;;6126466;29;20056;-75
2023/05/05 19:15:32;;;;;;;5.18;2.45;;;17.90;99.90;;;;;;6122213;29;20055;-74
2023/05/05 19:18:35;;;;;;;6.35;2.30;;;17.90;99.90;;;;;;6125234;29;20512;-77
2023/05/05 19:21:37;;;;;;;5.28;2.42;;;17.90;99.90;;;;;;6124209;29;20058;-77
2023/05/05 19:24:39;;;;;;;5.68;2.45;;;17.90;99.90;;;;;;6124396;29;20062;-78
2023/05/05 19:27:41;;;;;;;5.50;2.42;;;17.80;99.90;;;;;;6123309;29;20591;-76
2023/05/05 19:30:45;;;;;;;4.30;2.30;;;17.80;99.90;;;;;;6123385;29;20490;-76
2023/05/05 19:33:52;;;;;;;6.70;2.30;;;17.80;99.90;;;;;;6125133;29;20052;-76
2023/05/05 19:36:53;;;;;;;5.30;2.30;;;17.80;99.90;;;;;;6125571;29;20059;-76
2023/05/05 19:39:55;;;;;;;6.85;2.60;;;17.80;99.90;;;;;;6114043;29;20056;-76
2023/05/05 19:42:57;;;;;;;4.88;2.65;;;17.70;99.90;;;;;;6118198;29;20047;-78
2023/05/05 19:46:00;;;;;;;7.47;2.65;;;17.60;99.90;;;;;;6125579;29;20696;-77
2023/05/05 19:49:03;;;;;;;4.37;2.70;;;17.70;99.90;;;;;;6130086;29;20058;-75
2023/05/05 19:52:06;;;;;;;5.25;2.55;;;17.70;99.90;;;;;;6121760;29;20451;-77
2023/05/05 19:55:11;;;;;;;6.35;2.80;;;17.70;99.90;;;;;;6107421;29;20066;-78
2023/05/05 19:58:13;;;;;;;5.50;2.83;;;17.70;99.90;;;;;;6121773;29;20391;-78
2023/05/05 20:01:15;;;;;;;9.68;2.92;;;17.50;99.90;;;;;;6118896;29;20616;-75
2023/05/05 20:04:18;;;;;;;6.93;2.67;;;17.50;99.90;;;;;;6116623;29;20054;-77
2023/05/05 20:07:20;;;;;;;5.43;2.70;;;17.40;99.90;;;;;;6116243;29;20648;-77
2023/05/05 20:10:22;;;;;;;6.30;2.83;;;17.40;99.90;;;;;;6121551;29;20491;-75
2023/05/05 20:13:24;;;;;;;6.90;2.70;;;17.40;99.90;;;;;;6122152;29;20051;-78
2023/05/05 20:16:26;;;;;;;4.88;2.83;;;17.30;99.90;;;;;;6127839;29;20050;-75
2023/05/05 20:19:29;;;;;;;6.82;3.05;;;17.40;99.90;;;;;;6130524;29;20047;-74
2023/05/05 20:22:31;;;;;;;4.35;2.72;;;17.40;99.90;;;;;;6125829;29;20048;-77
2023/05/05 20:25:33;;;;;;;8.27;3.13;;;17.50;99.90;;;;;;6128252;29;20059;-77
2023/05/05 20:28:37;;;;;;;8.05;3.10;;;17.40;99.90;;;;;;6126378;29;20052;-77
2023/05/05 20:31:39;;;;;;;6.28;3.30;;;17.40;99.90;;;;;;6120882;29;20192;-77
2023/05/05 20:34:43;;;;;;;9.73;3.55;;;17.40;99.90;;;;;;6123584;29;20047;-75
2023/05/05 20:37:45;;;;;;;5.97;3.20;;;17.40;99.90;;;;;;6122421;29;20054;-76
2023/05/05 20:40:47;;;;;;;11.40;3.38;;;17.30;99.90;;;;;;6122661;29;20052;-75
2023/05/05 20:43:50;;;;;;;7.13;3.10;;;17.40;99.90;;;;;;6123457;29;20058;-75
2023/05/05 20:46:51;;;;;;;7.18;3.40;;;17.40;99.90;;;;;;6119846;29;20052;-78
2023/05/05 20:49:55;;;;;;;5.80;3.25;;;17.40;99.90;;;;;;6123097;29;20417;-74
2023/05/05 20:52:57;;;;;;;5.65;2.83;;;17.40;99.90;;;;;;6124193;29;20058;-76
2023/05/05 20:55:58;;;;;;;5.25;2.80;;;17.40;99.90;;;;;;6124787;29;20052;-77
2023/05/05 20:59:00;;;;;;;4.78;2.80;;;17.40;99.90;;;;;;6128057;29;20047;-76
2023/05/05 21:02:02;;;;;;;7.10;3.15;;;17.50;99.90;;;;;;6127038;29;20109;-78
2023/05/05 21:05:07;;;;;;;5.95;3.45;;;17.40;99.90;;;;;;6120007;29;20048;-76
2023/05/05 21:08:08;;;;;;;5.38;3.13;;;17.30;99.90;;;;;;6102529;29;20513;-77
2023/05/05 21:11:10;;;;;;;6.63;3.08;;;17.30;99.90;;;;;;6102696;29;20517;-76
2023/05/05 21:14:12;;;;;;;6.65;3.88;;;17.30;99.90;;;;;;6112432;29;20501;-78
2023/05/05 21:17:14;;;;;;;6.18;3.05;;;17.40;99.90;;;;;;6128081;29;20059;-77
2023/05/05 21:20:18;;;;;;;6.63;3.03;;;17.30;99.90;;;;;;6140038;29;20055;-76
2023/05/05 21:23:20;;;;;;;4.95;2.85;;;17.30;99.90;;;;;;6128360;29;20139;-76
2023/05/05 21:26:22;;;;;;;6.28;3.30;;;17.30;99.90;;;;;;6114651;29;20056;-77
2023/05/05 21:29:24;;;;;;;6.88;3.50;;;17.40;99.90;;;;;;6114197;29;20059;-76
2023/05/05 21:32:26;;;;;;;6.72;3.53;;;17.30;99.90;;;;;;6128804;29;20065;-74
2023/05/05 21:35:29;;;;;;;6.80;3.30;;;17.30;99.90;;;;;;6134996;29;20495;-75
2023/05/05 21:38:31;;;;;;;6.72;3.08;;;17.30;99.90;;;;;;6131095;29;20058;-75
2023/05/05 21:41:33;;;;;;;6.25;3.60;;;17.30;99.90;;;;;;6125157;29;20060;-76
2023/05/05 21:44:35;;;;;;;6.57;3.92;;;17.30;99.90;;;;;;6124992;29;20058;-76
2023/05/05 21:47:37;;;;;;;7.80;3.70;;;17.20;99.90;;;;;;6123992;29;20122;-74
2023/05/05 21:50:40;;;;;;;6.70;4.28;;;17.20;99.90;;;;;;6123165;29;20048;-74
2023/05/05 21:53:42;;;;;;;7.50;4.60;;;17.10;99.90;;;;;;6123853;29;20048;-74
2023/05/05 21:56:44;;;;;;;7.43;4.22;;;17.10;99.90;;;;;;6124008;29;20055;-75
2023/05/05 21:59:46;;;;;;;6.85;3.55;;;17.10;99.90;;;;;;6111967;29;20075;-74
